sensor_id;sensor_type;location;lat;lon;timestamp;pressure;altitude;pressure_sealevel;temperature;humidity
14273;BME280;7220;49.450;11.052;2023-09-08T08:33:52;98509.25;;;19.79;81.57
14273;BME280;7220;49.450;11.052;2023-09-08T08:40:42;98494.34;;;22.59;76.34
14273;BME280;7220;49.450;11.052;2023-09-08T08:45:07;98502.56;;;21.25;78.74
14273;BME280;7220;49.450;11.052;2023-09-08T08:49:09;98498.84;;;20.96;78.92
14273;BME280;7220;49.450;11.052;2023-09-08T08:53:11;98497.25;;;20.84;79.20
14273;BME280;7220;49.450;11.052;2023-09-08T08:57:13;98487.75;;;20.80;80.06
14273;BME280;7220;49.450;11.052;2023-09-08T09:01:16;98491.88;;;20.84;80.08
14273;BME280;7220;49.450;11.052;2023-09-08T09:05:19;98473.53;;;20.88;79.48
14273;BME280;7220;49.450;11.052;2023-09-08T09:09:19;98486.34;;;20.95;79.30
14273;BME280;7220;49.450;11.052;2023-09-08T09:13:20;98477.50;;;21.03;78.99
14273;BME280;7220;49.450;11.052;2023-09-08T09:17:21;98479.22;;;21.14;78.75
14273;BME280;7220;49.450;11.052;2023-09-08T09:21:21;98473.09;;;21.22;77.69
14273;BME280;7220;49.450;11.052;2023-09-08T09:25:23;98464.13;;;21.31;76.62
14273;BME280;7220;49.450;11.052;2023-09-08T09:29:24;98468.09;;;21.47;74.41
14273;BME280;7220;49.450;11.052;2023-09-08T09:33:25;98462.41;;;21.59;72.22
14273;BME280;7220;49.450;11.052;2023-09-08T09:37:25;98453.81;;;21.74;71.60
14273;BME280;7220;49.450;11.052;2023-09-08T09:41:29;98457.75;;;21.89;70.37
14273;BME280;7220;49.450;11.052;2023-09-08T09:45:31;98457.97;;;22.06;69.78
14273;BME280;7220;49.450;11.052;2023-09-08T09:49:31;98451.38;;;22.18;69.27
14273;BME280;7220;49.450;11.052;2023-09-08T09:53:33;98447.16;;;22.34;68.05
14273;BME280;7220;49.450;11.052;2023-09-08T09:57:33;98446.94;;;22.45;66.59
14273;BME280;7220;49.450;11.052;2023-09-08T10:01:36;98456.56;;;22.58;65.45
14273;BME280;7220;49.450;11.052;2023-09-08T10:05:37;98445.91;;;22.74;63.80
14273;BME280;7220;49.450;11.052;2023-09-08T10:09:37;98440.19;;;22.95;62.36
14273;BME280;7220;49.450;11.052;2023-09-08T10:13:42;98439.28;;;23.13;62.50
14273;BME280;7220;49.450;11.052;2023-09-08T10:17:47;98440.78;;;23.25;62.13
14273;BME280;7220;49.450;11.052;2023-09-08T10:21:51;98434.97;;;23.38;61.48
14273;BME280;7220;49.450;11.052;2023-09-08T10:25:58;98428.25;;;23.51;60.59
14273;BME280;7220;49.450;11.052;2023-09-08T10:30:04;98428.53;;;23.66;59.59
14273;BME280;7220;49.450;11.052;2023-09-08T10:34:06;98424.84;;;23.75;59.76
14273;BME280;7220;49.450;11.052;2023-09-08T10:38:27;98429.50;;;23.91;57.56
14273;BME280;7220;49.450;11.052;2023-09-08T10:42:27;98428.28;;;24.12;57.38
14273;BME280;7220;49.450;11.052;2023-09-08T10:46:30;98414.59;;;24.30;55.89
14273;BME280;7220;49.450;11.052;2023-09-08T10:50:35;98407.31;;;24.47;55.85
14273;BME280;7220;49.450;11.052;2023-09-08T10:58:42;98402.66;;;24.82;53.27
14273;BME280;7220;49.450;11.052;2023-09-08T11:02:49;98401.09;;;25.04;53.50
14273;BME280;7220;49.450;11.052;2023-09-08T11:06:56;98404.69;;;25.13;53.18
14273;BME280;7220;49.450;11.052;2023-09-08T11:10:56;98399.94;;;25.23;51.94
14273;BME280;7220;49.450;11.052;2023-09-08T11:14:57;98411.47;;;25.42;49.77
14273;BME280;7220;49.450;11.052;2023-09-08T11:19:00;98406.38;;;25.55;51.98
14273;BME280;7220;49.450;11.052;2023-09-08T11:23:04;98402.47;;;25.97;48.26
14273;BME280;7220;49.450;11.052;2023-09-08T11:27:11;98404.53;;;27.13;47.45
14273;BME280;7220;49.450;11.052;2023-09-08T11:31:12;98392.88;;;27.88;46.08
14273;BME280;7220;49.450;11.052;2023-09-08T11:35:12;98394.28;;;28.50;45.18
14273;BME280;7220;49.450;11.052;2023-09-08T11:39:14;98395.19;;;29.16;43.69
14273;BME280;7220;49.450;11.052;2023-09-08T11:43:15;98395.16;;;29.66;42.72
14273;BME280;7220;49.450;11.052;2023-09-08T11:47:15;98389.94;;;30.13;37.91
14273;BME280;7220;49.450;11.052;2023-09-08T11:51:16;98392.09;;;30.79;38.38
14273;BME280;7220;49.450;11.052;2023-09-08T11:55:18;98387.69;;;31.32;35.39
14273;BME280;7220;49.450;11.052;2023-09-08T11:59:19;98390.13;;;31.94;36.17
14273;BME280;7220;49.450;11.052;2023-09-08T12:03:19;98379.38;;;32.45;34.41
14273;BME280;7220;49.450;11.052;2023-09-08T12:07:20;98381.13;;;33.03;33.00
14273;BME280;7220;49.450;11.052;2023-09-08T12:11:20;98377.44;;;33.41;32.05
14273;BME280;7220;49.450;11.052;2023-09-08T12:15:37;98366.16;;;33.68;31.00
14273;BME280;7220;49.450;11.052;2023-09-08T12:19:38;98368.91;;;34.24;31.21
14273;BME280;7220;49.450;11.052;2023-09-08T12:23:49;98372.41;;;34.50;29.56
14273;BME280;7220;49.450;11.052;2023-09-08T12:27:50;98374.56;;;34.78;29.67
14273;BME280;7220;49.450;11.052;2023-09-08T12:31:51;98368.44;;;34.88;28.51
14273;BME280;7220;49.450;11.052;2023-09-08T12:35:52;98360.84;;;35.14;27.92
14273;BME280;7220;49.450;11.052;2023-09-08T12:39:53;98365.69;;;35.66;28.44
14273;BME280;7220;49.450;11.052;2023-09-08T12:43:53;98363.75;;;35.90;27.52
14273;BME280;7220;49.450;11.052;2023-09-08T12:47:54;98357.53;;;36.24;27.20
14273;BME280;7220;49.450;11.052;2023-09-08T12:52:02;98358.41;;;36.53;27.18
14273;BME280;7220;49.450;11.052;2023-09-08T12:56:03;98344.06;;;36.56;25.02
14273;BME280;7220;49.450;11.052;2023-09-08T13:00:04;98347.22;;;36.77;24.11
14273;BME280;7220;49.450;11.052;2023-09-08T13:04:04;98345.81;;;37.08;25.08
14273;BME280;7220;49.450;11.052;2023-09-08T13:08:05;98343.38;;;37.12;24.79
14273;BME280;7220;49.450;11.052;2023-09-08T13:12:05;98339.78;;;37.46;24.72
14273;BME280;7220;49.450;11.052;2023-09-08T13:16:06;98328.25;;;37.76;24.23
14273;BME280;7220;49.450;11.052;2023-09-08T13:20:07;98336.09;;;38.01;24.62
14273;BME280;7220;49.450;11.052;2023-09-08T13:24:08;98335.13;;;38.35;23.41
14273;BME280;7220;49.450;11.052;2023-09-08T13:28:08;98330.53;;;38.24;22.33
14273;BME280;7220;49.450;11.052;2023-09-08T13:32:08;98331.03;;;38.43;22.50
14273;BME280;7220;49.450;11.052;2023-09-08T13:36:09;98326.69;;;38.79;22.22
14273;BME280;7220;49.450;11.052;2023-09-08T13:40:09;98334.06;;;38.96;21.57
14273;BME280;7220;49.450;11.052;2023-09-08T13:44:10;98331.44;;;38.84;21.66
14273;BME280;7220;49.450;11.052;2023-09-08T13:48:10;98316.63;;;38.73;21.84
14273;BME280;7220;49.450;11.052;2023-09-08T13:52:10;98324.66;;;38.42;22.06
14273;BME280;7220;49.450;11.052;2023-09-08T13:56:11;98314.84;;;37.68;24.55
14273;BME280;7220;49.450;11.052;2023-09-08T14:00:11;98314.06;;;36.82;25.91
14273;BME280;7220;49.450;11.052;2023-09-08T14:04:12;98310.44;;;36.36;26.58
14273;BME280;7220;49.450;11.052;2023-09-08T14:08:12;98313.25;;;35.71;27.25
14273;BME280;7220;49.450;11.052;2023-09-08T14:12:12;98307.66;;;35.18;27.46
14273;BME280;7220;49.450;11.052;2023-09-08T14:16:13;98295.91;;;34.57;28.50
14273;BME280;7220;49.450;11.052;2023-09-08T14:20:13;98300.00;;;34.05;28.59
14273;BME280;7220;49.450;11.052;2023-09-08T14:24:14;98297.88;;;33.70;29.23
14273;BME280;7220;49.450;11.052;2023-09-08T14:28:14;98297.78;;;33.40;29.89
14273;BME280;7220;49.450;11.052;2023-09-08T14:32:14;98304.19;;;32.90;29.83
14273;BME280;7220;49.450;11.052;2023-09-08T14:36:18;98291.22;;;32.65;30.35
14273;BME280;7220;49.450;11.052;2023-09-08T14:40:18;98294.75;;;32.47;31.05
14273;BME280;7220;49.450;11.052;2023-09-08T14:44:19;98290.59;;;32.31;29.91
14273;BME280;7220;49.450;11.052;2023-09-08T14:48:21;98279.22;;;32.20;30.16
14273;BME280;7220;49.450;11.052;2023-09-08T14:52:21;98287.50;;;32.14;31.54
14273;BME280;7220;49.450;11.052;2023-09-08T14:56:22;98284.94;;;32.25;32.94
14273;BME280;7220;49.450;11.052;2023-09-08T15:00:22;98283.41;;;32.30;33.36
14273;BME280;7220;49.450;11.052;2023-09-08T15:04:22;98279.66;;;32.24;33.62
14273;BME280;7220;49.450;11.052;2023-09-08T15:08:23;98281.38;;;32.12;37.45
14273;BME280;7220;49.450;11.052;2023-09-08T15:12:23;98284.44;;;31.97;35.14
14273;BME280;7220;49.450;11.052;2023-09-08T15:16:23;98288.75;;;31.79;35.21
14273;BME280;7220;49.450;11.052;2023-09-08T15:20:24;98276.72;;;31.67;35.30
14273;BME280;7220;49.450;11.052;2023-09-08T15:24:24;98276.97;;;31.52;35.24
14273;BME280;7220;49.450;11.052;2023-09-08T15:28:25;98285.03;;;31.40;35.08
14273;BME280;7220;49.450;11.052;2023-09-08T15:32:25;98278.75;;;31.19;34.84
14273;BME280;7220;49.450;11.052;2023-09-08T15:36:25;98277.06;;;30.84;34.01
14273;BME280;7220;49.450;11.052;2023-09-08T15:40:26;98276.63;;;30.54;34.58
14273;BME280;7220;49.450;11.052;2023-09-08T15:44:26;98279.94;;;30.29;34.80
14273;BME280;7220;49.450;11.052;2023-09-08T15:48:26;98284.09;;;30.05;35.91
14273;BME280;7220;49.450;11.052;2023-09-08T15:52:26;98274.31;;;29.82;35.91
14273;BME280;7220;49.450;11.052;2023-09-08T15:56:27;98273.41;;;29.68;36.52
14273;BME280;7220;49.450;11.052;2023-09-08T16:00:27;98266.13;;;29.47;36.61
14273;BME280;7220;49.450;11.052;2023-09-08T16:04:27;98269.84;;;29.33;36.30
14273;BME280;7220;49.450;11.052;2023-09-08T16:08:28;98263.63;;;29.17;36.59
14273;BME280;7220;49.450;11.052;2023-09-08T16:12:28;98265.44;;;29.03;37.09
14273;BME280;7220;49.450;11.052;2023-09-08T16:16:28;98259.59;;;28.85;36.49
14273;BME280;7220;49.450;11.052;2023-09-08T16:20:29;98260.38;;;28.72;36.58
14273;BME280;7220;49.450;11.052;2023-09-08T16:24:29;98264.19;;;28.56;37.42
14273;BME280;7220;49.450;11.052;2023-09-08T16:28:29;98270.00;;;28.46;36.84
14273;BME280;7220;49.450;11.052;2023-09-08T16:32:30;98272.41;;;28.34;37.08
14273;BME280;7220;49.450;11.052;2023-09-08T16:36:30;98270.47;;;28.28;37.48
14273;BME280;7220;49.450;11.052;2023-09-08T16:40:30;98271.22;;;28.22;37.81
14273;BME280;7220;49.450;11.052;2023-09-08T16:44:31;98275.13;;;28.12;38.13
14273;BME280;7220;49.450;11.052;2023-09-08T16:48:31;98286.31;;;28.02;38.45
14273;BME280;7220;49.450;11.052;2023-09-08T16:52:31;98276.09;;;27.90;38.85
14273;BME280;7220;49.450;11.052;2023-09-08T16:56:32;98280.16;;;27.79;39.13
14273;BME280;7220;49.450;11.052;2023-09-08T17:00:32;98280.69;;;27.67;39.04
14273;BME280;7220;49.450;11.052;2023-09-08T17:04:32;98286.81;;;27.54;39.42
14273;BME280;7220;49.450;11.052;2023-09-08T17:08:33;98287.44;;;27.42;39.72
14273;BME280;7220;49.450;11.052;2023-09-08T17:12:33;98281.16;;;27.26;39.95
14273;BME280;7220;49.450;11.052;2023-09-08T17:16:34;98280.38;;;27.17;39.93
14273;BME280;7220;49.450;11.052;2023-09-08T17:20:34;98291.75;;;27.06;40.63
14273;BME280;7220;49.450;11.052;2023-09-08T17:24:34;98281.47;;;26.93;40.67
14273;BME280;7220;49.450;11.052;2023-09-08T17:28:35;98279.66;;;26.85;41.32
14273;BME280;7220;49.450;11.052;2023-09-08T17:32:35;98288.09;;;26.75;41.44
14273;BME280;7220;49.450;11.052;2023-09-08T17:36:35;98291.91;;;26.66;41.73
14273;BME280;7220;49.450;11.052;2023-09-08T17:40:36;98285.88;;;26.56;42.33
14273;BME280;7220;49.450;11.052;2023-09-08T17:44:36;98302.13;;;26.49;42.85
14273;BME280;7220;49.450;11.052;2023-09-08T17:48:36;98300.00;;;26.36;43.52
14273;BME280;7220;49.450;11.052;2023-09-08T17:52:37;98298.00;;;26.30;43.63
14273;BME280;7220;49.450;11.052;2023-09-08T17:56:37;98299.91;;;26.21;43.88
14273;BME280;7220;49.450;11.052;2023-09-08T18:00:37;98307.09;;;26.14;44.65
14273;BME280;7220;49.450;11.052;2023-09-08T18:04:40;98310.03;;;26.04;45.06
14273;BME280;7220;49.450;11.052;2023-09-08T18:08:40;98300.41;;;25.93;45.26
14273;BME280;7220;49.450;11.052;2023-09-08T18:12:41;98301.66;;;25.82;45.97
14273;BME280;7220;49.450;11.052;2023-09-08T18:16:41;98302.72;;;25.73;46.25
14273;BME280;7220;49.450;11.052;2023-09-08T18:20:42;98301.59;;;25.59;46.40
14273;BME280;7220;49.450;11.052;2023-09-08T18:24:43;98295.69;;;25.47;47.17
14273;BME280;7220;49.450;11.052;2023-09-08T18:28:43;98302.31;;;25.36;47.47
14273;BME280;7220;49.450;11.052;2023-09-08T18:32:43;98314.25;;;25.27;47.47
14273;BME280;7220;49.450;11.052;2023-09-08T18:36:44;98301.69;;;25.18;47.87
14273;BME280;7220;49.450;11.052;2023-09-08T18:40:45;98316.31;;;25.09;48.42
14273;BME280;7220;49.450;11.052;2023-09-08T18:44:45;98315.66;;;24.98;48.22
14273;BME280;7220;49.450;11.052;2023-09-08T18:48:46;98319.91;;;24.93;47.94
14273;BME280;7220;49.450;11.052;2023-09-08T18:52:46;98316.34;;;24.84;48.60
14273;BME280;7220;49.450;11.052;2023-09-08T18:56:46;98317.91;;;24.78;48.80
14273;BME280;7220;49.450;11.052;2023-09-08T19:00:47;98310.22;;;24.65;49.40
14273;BME280;7220;49.450;11.052;2023-09-08T19:04:48;98317.69;;;24.55;49.88
14273;BME280;7220;49.450;11.052;2023-09-08T19:08:49;98323.97;;;24.47;50.37
14273;BME280;7220;49.450;11.052;2023-09-08T19:12:50;98308.69;;;24.38;50.60
14273;BME280;7220;49.450;11.052;2023-09-08T19:16:50;98323.44;;;24.27;51.46
14273;BME280;7220;49.450;11.052;2023-09-08T19:20:51;98321.88;;;24.16;51.95
14273;BME280;7220;49.450;11.052;2023-09-08T19:24:51;98322.03;;;24.06;52.77
14273;BME280;7220;49.450;11.052;2023-09-08T19:28:52;98325.72;;;23.97;53.56
14273;BME280;7220;49.450;11.052;2023-09-08T19:32:53;98325.16;;;23.85;54.42
14273;BME280;7220;49.450;11.052;2023-09-08T19:36:53;98322.56;;;23.75;55.61
14273;BME280;7220;49.450;11.052;2023-09-08T19:41:01;98324.56;;;23.65;55.90
14273;BME280;7220;49.450;11.052;2023-09-08T19:45:03;98324.88;;;23.54;56.77
14273;BME280;7220;49.450;11.052;2023-09-08T19:49:03;98322.44;;;23.42;56.97
14273;BME280;7220;49.450;11.052;2023-09-08T19:53:04;98325.09;;;23.34;57.79
14273;BME280;7220;49.450;11.052;2023-09-08T19:57:04;98323.34;;;23.25;58.14
14273;BME280;7220;49.450;11.052;2023-09-08T20:01:10;98327.72;;;23.18;58.34
14273;BME280;7220;49.450;11.052;2023-09-08T20:05:13;98338.63;;;23.08;58.75
14273;BME280;7220;49.450;11.052;2023-09-08T20:09:13;98341.44;;;22.98;59.59
14273;BME280;7220;49.450;11.052;2023-09-08T20:13:14;98328.16;;;22.87;59.77
14273;BME280;7220;49.450;11.052;2023-09-08T20:17:17;98334.66;;;22.76;60.12
14273;BME280;7220;49.450;11.052;2023-09-08T20:21:20;98345.75;;;22.64;60.74
14273;BME280;7220;49.450;11.052;2023-09-08T20:25:23;98344.13;;;22.53;61.01
14273;BME280;7220;49.450;11.052;2023-09-08T20:29:23;98344.03;;;22.45;61.52
14273;BME280;7220;49.450;11.052;2023-09-08T20:33:23;98342.41;;;22.34;61.89
14273;BME280;7220;49.450;11.052;2023-09-08T20:37:24;98338.91;;;22.24;62.34
14273;BME280;7220;49.450;11.052;2023-09-08T20:41:24;98342.22;;;22.18;62.79
14273;BME280;7220;49.450;11.052;2023-09-08T20:45:24;98348.00;;;22.05;63.65
14273;BME280;7220;49.450;11.052;2023-09-08T20:49:25;98352.66;;;21.95;64.14
14273;BME280;7220;49.450;11.052;2023-09-08T20:53:26;98352.84;;;21.83;65.01
14273;BME280;7220;49.450;11.052;2023-09-08T20:57:26;98346.50;;;21.74;65.95
14273;BME280;7220;49.450;11.052;2023-09-08T21:01:26;98350.94;;;21.66;66.04
14273;BME280;7220;49.450;11.052;2023-09-08T21:05:27;98334.88;;;21.54;67.02
14273;BME280;7220;49.450;11.052;2023-09-08T21:09:28;98343.16;;;21.43;67.35
14273;BME280;7220;49.450;11.052;2023-09-08T21:13:28;98347.47;;;21.36;67.88
14273;BME280;7220;49.450;11.052;2023-09-08T21:17:28;98342.53;;;21.21;68.20
14273;BME280;7220;49.450;11.052;2023-09-08T21:21:29;98339.84;;;21.11;68.58
14273;BME280;7220;49.450;11.052;2023-09-08T21:25:30;98336.44;;;21.00;69.47
14273;BME280;7220;49.450;11.052;2023-09-08T21:29:31;98339.34;;;20.88;69.74
14273;BME280;7220;49.450;11.052;2023-09-08T21:33:31;98347.88;;;20.84;70.04
14273;BME280;7220;49.450;11.052;2023-09-08T21:37:31;98339.63;;;20.75;70.85
14273;BME280;7220;49.450;11.052;2023-09-08T21:41:32;98335.22;;;20.64;70.67
14273;BME280;7220;49.450;11.052;2023-09-08T21:45:32;98329.69;;;20.56;71.78
14273;BME280;7220;49.450;11.052;2023-09-08T21:49:32;98332.94;;;20.50;71.14
14273;BME280;7220;49.450;11.052;2023-09-08T21:53:33;98342.63;;;20.43;72.36
14273;BME280;7220;49.450;11.052;2023-09-08T21:57:33;98349.53;;;20.36;72.58
14273;BME280;7220;49.450;11.052;2023-09-08T22:01:33;98346.44;;;20.30;72.56
14273;BME280;7220;49.450;11.052;2023-09-08T22:05:34;98343.72;;;20.21;73.51
14273;BME280;7220;49.450;11.052;2023-09-08T22:09:34;98337.03;;;20.15;74.00
14273;BME280;7220;49.450;11.052;2023-09-08T22:13:35;98343.13;;;20.07;74.61
14273;BME280;7220;49.450;11.052;2023-09-08T22:17:35;98337.44;;;20.00;74.33
14273;BME280;7220;49.450;11.052;2023-09-08T22:21:35;98333.31;;;19.96;74.88
14273;BME280;7220;49.450;11.052;2023-09-08T22:25:36;98331.31;;;19.89;75.46
14273;BME280;7220;49.450;11.052;2023-09-08T22:29:36;98351.56;;;19.83;75.51
14273;BME280;7220;49.450;11.052;2023-09-08T22:33:36;98338.34;;;19.80;76.50
14273;BME280;7220;49.450;11.052;2023-09-08T22:37:37;98338.91;;;19.74;76.48
14273;BME280;7220;49.450;11.052;2023-09-08T22:41:37;98348.28;;;19.69;77.28
14273;BME280;7220;49.450;11.052;2023-09-08T22:45:41;98336.91;;;19.66;77.65
14273;BME280;7220;49.450;11.052;2023-09-08T22:50:02;98335.75;;;19.59;78.36
14273;BME280;7220;49.450;11.052;2023-09-08T22:54:06;98336.84;;;19.56;78.39
14273;BME280;7220;49.450;11.052;2023-09-08T22:58:07;98327.50;;;19.50;79.03
14273;BME280;7220;49.450;11.052;2023-09-08T23:02:07;98326.19;;;19.45;79.04
14273;BME280;7220;49.450;11.052;2023-09-08T23:06:08;98331.41;;;19.36;79.65
14273;BME280;7220;49.450;11.052;2023-09-08T23:10:09;98326.28;;;19.33;80.87
14273;BME280;7220;49.450;11.052;2023-09-08T23:14:10;98323.13;;;19.28;81.54
14273;BME280;7220;49.450;11.052;2023-09-08T23:18:11;98330.75;;;19.23;81.54
14273;BME280;7220;49.450;11.052;2023-09-08T23:22:11;98330.44;;;19.16;82.13
14273;BME280;7220;49.450;11.052;2023-09-08T23:26:11;98324.00;;;19.07;83.11
14273;BME280;7220;49.450;11.052;2023-09-08T23:30:12;98325.03;;;19.06;83.58
14273;BME280;7220;49.450;11.052;2023-09-08T23:34:13;98320.16;;;19.00;83.45
14273;BME280;7220;49.450;11.052;2023-09-08T23:38:13;98327.06;;;18.93;83.64
14273;BME280;7220;49.450;11.052;2023-09-08T23:42:13;98318.97;;;18.93;83.94
14273;BME280;7220;49.450;11.052;2023-09-08T23:46:13;98316.06;;;18.85;83.98
14273;BME280;7220;49.450;11.052;2023-09-08T23:50:14;98317.31;;;18.81;84.56
14273;BME280;7220;49.450;11.052;2023-09-08T23:54:14;98323.94;;;18.76;85.28
14273;BME280;7220;49.450;11.052;2023-09-08T23:58:16;98314.44;;;18.72;85.61
